createdAt,value
2023-04-03T00:00:47.920Z,98841.97
2023-04-03T00:03:16.630Z,98835.25
2023-04-03T00:05:45.163Z,98826.72
2023-04-03T00:08:13.545Z,98825.91
2023-04-03T00:10:41.562Z,98826.66
2023-04-03T00:13:10.233Z,98825.72
2023-04-03T00:15:39.692Z,98831.69
2023-04-03T00:18:08.080Z,98832.63
2023-04-03T00:20:36.670Z,98828.38
2023-04-03T00:23:05.024Z,98829.16
2023-04-03T00:25:33.085Z,98836.78
2023-04-03T00:28:01.745Z,98833.38
2023-04-03T00:30:31.799Z,98840.25
2023-04-03T00:33:01.870Z,98835.19
2023-04-03T00:35:31.074Z,98835.13
2023-04-03T00:37:59.214Z,98843.56
2023-04-03T00:40:28.574Z,98836.78
2023-04-03T00:42:59.245Z,98839.28
2023-04-03T00:45:30.280Z,98836.84
2023-04-03T00:48:00.836Z,98837.63
2023-04-03T00:50:31.416Z,98838.47
2023-04-03T00:53:00.259Z,98845.16
2023-04-03T00:55:30.877Z,98833.28
2023-04-03T00:57:59.217Z,98840.13
2023-04-03T01:00:28.858Z,98836.69
2023-04-03T01:02:57.154Z,98833.22
2023-04-03T01:05:25.029Z,98834.94
2023-04-03T01:07:54.769Z,98828.09
2023-04-03T01:10:23.457Z,98838.31
2023-04-03T01:12:52.579Z,98839.13
2023-04-03T01:15:21.943Z,98835.81
2023-04-03T01:17:51.059Z,98834.03
2023-04-03T01:20:40.929Z,98849.34
2023-04-03T01:23:15.126Z,98833.97
2023-04-03T01:25:44.642Z,98837.31
2023-04-03T01:28:13.936Z,98838.16
2023-04-03T01:30:45.405Z,98833.88
2023-04-03T01:33:16.139Z,98841.50
2023-04-03T01:35:44.640Z,98838.94
2023-04-03T01:38:12.892Z,98833.72
2023-04-03T01:40:40.766Z,98841.31
2023-04-03T01:43:08.628Z,98836.25
2023-04-03T01:45:36.683Z,98831.16
2023-04-03T01:48:04.890Z,98841.22
2023-04-03T01:50:34.814Z,98838.72
2023-04-03T01:53:02.870Z,98840.38
2023-04-03T01:55:31.159Z,98836.88
2023-04-03T01:57:59.335Z,98828.34
2023-04-03T02:00:28.265Z,98842.75
2023-04-03T02:02:56.691Z,98827.28
2023-04-03T02:05:24.866Z,98834.91
2023-04-03T02:07:54.242Z,98833.16
2023-04-03T02:10:22.070Z,98843.13
2023-04-03T02:12:50.600Z,98835.50
2023-04-03T02:15:18.561Z,98833.78
2023-04-03T02:17:46.679Z,98839.72
2023-04-03T02:20:15.339Z,98838.94
2023-04-03T02:22:43.477Z,98842.28
2023-04-03T02:25:14.216Z,98835.38
2023-04-03T02:27:42.081Z,98850.63
2023-04-03T02:30:11.807Z,98839.59
2023-04-03T02:32:39.687Z,98840.41
2023-04-03T02:35:08.028Z,98833.44
2023-04-03T02:37:36.718Z,98838.50
2023-04-03T02:40:05.321Z,98838.41
2023-04-03T02:42:35.082Z,98838.31
2023-04-03T02:45:03.182Z,98843.38
2023-04-03T02:47:31.815Z,98844.97
2023-04-03T02:50:00.113Z,98843.13
2023-04-03T02:52:28.374Z,98834.63
2023-04-03T02:54:56.202Z,98831.22
2023-04-03T02:57:25.199Z,98843.78
2023-04-03T02:59:54.938Z,98839.56
2023-04-03T03:02:23.204Z,98846.50
2023-04-03T03:04:51.240Z,98840.38
2023-04-03T03:07:19.950Z,98845.59
2023-04-03T03:09:47.933Z,98845.66
2023-04-03T03:12:15.869Z,98848.13
2023-04-03T03:14:44.404Z,98844.75
2023-04-03T03:17:14.685Z,98842.97
2023-04-03T03:19:42.535Z,98834.47
2023-04-03T03:22:10.532Z,98838.63
2023-04-03T03:24:38.594Z,98840.31
2023-04-03T03:27:06.900Z,98839.50
2023-04-03T03:29:35.031Z,98840.31
2023-04-03T03:32:03.690Z,98846.22
2023-04-03T03:34:33.187Z,98849.59
2023-04-03T03:37:01.546Z,98844.47
2023-04-03T03:39:29.585Z,98841.03
2023-04-03T03:41:57.374Z,98841.88
2023-04-03T03:44:25.996Z,98839.22
2023-04-03T03:46:54.211Z,98844.47
2023-04-03T03:49:22.236Z,98848.50
2023-04-03T03:51:52.972Z,98851.19
2023-04-03T03:54:20.990Z,98849.34
2023-04-03T03:56:50.210Z,98850.25
2023-04-03T03:59:18.318Z,98849.41
2023-04-03T04:01:46.523Z,98845.25
2023-04-03T04:04:14.738Z,98843.47
2023-04-03T04:06:43.184Z,98847.66
2023-04-03T04:09:17.171Z,98852.75
2023-04-03T04:11:45.251Z,98856.22
2023-04-03T04:14:14.747Z,98847.75
2023-04-03T04:16:43.132Z,98851.03
2023-04-03T04:19:11.241Z,98852.81
2023-04-03T04:21:39.296Z,98847.81
2023-04-03T04:24:07.527Z,98849.47
2023-04-03T04:26:37.949Z,98857.31
2023-04-03T04:29:06.294Z,98855.47
2023-04-03T04:31:34.935Z,98859.69
2023-04-03T04:34:03.402Z,98859.63
2023-04-03T04:36:31.587Z,98856.25
2023-04-03T04:39:00.030Z,98857.88
2023-04-03T04:41:29.149Z,98859.56
2023-04-03T04:43:59.076Z,98862.03
2023-04-03T04:46:27.378Z,98865.94
2023-04-03T04:48:55.329Z,98864.06
2023-04-03T04:51:23.692Z,98871.56
2023-04-03T04:53:53.514Z,98874.81
2023-04-03T04:56:23.335Z,98874.75
2023-04-03T04:58:51.806Z,98875.66
2023-04-03T05:01:21.271Z,98879.09
2023-04-03T05:03:49.967Z,98884.25
2023-04-03T05:06:18.162Z,98890.03
2023-04-03T05:08:46.281Z,98889.25
2023-04-03T05:11:14.682Z,98892.72
2023-04-03T05:13:43.137Z,98883.44
2023-04-03T05:16:12.464Z,98885.34
2023-04-03T05:18:42.063Z,98886.78
2023-04-03T05:21:10.649Z,98886.16
2023-04-03T05:23:39.239Z,98888.81
2023-04-03T05:26:07.718Z,98889.50
2023-04-03T05:28:36.290Z,98892.22
2023-04-03T05:31:04.369Z,98893.78
2023-04-03T05:33:32.673Z,98886.16
2023-04-03T05:36:08.083Z,98898.84
2023-04-03T05:38:39.345Z,98901.47
2023-04-03T05:41:08.193Z,98897.28
2023-04-03T05:43:38.813Z,98900.84
2023-04-03T05:46:09.603Z,98902.47
2023-04-03T05:48:38.105Z,98904.31
2023-04-03T05:51:08.238Z,98898.59
2023-04-03T05:53:38.842Z,98902.09
2023-04-03T05:56:07.476Z,98900.28
2023-04-03T05:58:35.654Z,98908.81
2023-04-03T06:01:03.842Z,98906.28
2023-04-03T06:03:32.152Z,98901.19
2023-04-03T06:06:00.483Z,98909.88
2023-04-03T06:08:30.212Z,98904.88
2023-04-03T06:10:58.669Z,98915.91
2023-04-03T06:13:26.646Z,98915.94
2023-04-03T06:15:55.229Z,98911.72
2023-04-03T06:18:23.660Z,98913.38
2023-04-03T06:20:52.649Z,98919.44
2023-04-03T06:23:21.048Z,98918.03
2023-04-03T06:25:50.821Z,98923.91
2023-04-03T06:28:20.481Z,98922.97
2023-04-03T06:30:48.362Z,98922.91
2023-04-03T06:33:16.468Z,98925.59
2023-04-03T06:35:44.491Z,98922.25
2023-04-03T06:38:13.073Z,98926.56
2023-04-03T06:40:41.775Z,98922.50
2023-04-03T06:43:11.480Z,98930.03
2023-04-03T06:45:49.686Z,98936.22
2023-04-03T06:48:18.676Z,98932.22
2023-04-03T06:50:46.989Z,98930.50
2023-04-03T06:53:15.332Z,98930.50
2023-04-03T06:55:44.047Z,98945.84
2023-04-03T06:58:14.012Z,98945.44
2023-04-03T07:00:42.405Z,98946.28
2023-04-03T07:03:10.529Z,98943.84
2023-04-03T07:05:38.976Z,98957.56
2023-04-03T07:08:08.087Z,98953.19
2023-04-03T07:10:36.428Z,98949.53
2023-04-03T07:13:07.185Z,98958.94
2023-04-03T07:15:38.390Z,98959.97
2023-04-03T07:18:12.685Z,98964.50
2023-04-03T07:20:41.725Z,98958.13
2023-04-03T07:23:09.916Z,98966.66
2023-04-03T07:25:38.025Z,98973.22
2023-04-03T07:28:06.717Z,98971.00
2023-04-03T07:30:35.313Z,98972.59
2023-04-03T07:33:08.025Z,98976.69
2023-04-03T07:35:37.226Z,98973.50
2023-04-03T07:38:05.851Z,98973.56
2023-04-03T07:40:33.867Z,98973.59
2023-04-03T07:43:02.716Z,98977.84
2023-04-03T07:45:31.337Z,98971.66
2023-04-03T07:47:59.583Z,98975.69
2023-04-03T07:50:29.101Z,98979.91
2023-04-03T07:52:58.855Z,98979.81
2023-04-03T07:55:26.982Z,98976.84
2023-04-03T07:57:55.071Z,98979.91
2023-04-03T08:00:24.433Z,98987.81
2023-04-03T08:02:53.142Z,98977.72
2023-04-03T08:05:21.766Z,98974.78
2023-04-03T08:07:52.272Z,98982.81
2023-04-03T08:10:20.188Z,98988.72
2023-04-03T08:12:48.649Z,98983.03
2023-04-03T08:15:17.527Z,98979.84
2023-04-03T08:17:46.938Z,98984.19
2023-04-03T08:20:15.431Z,98983.44
2023-04-03T08:22:43.870Z,98977.53
2023-04-03T08:25:13.742Z,98983.44
2023-04-03T08:27:41.734Z,98984.53
2023-04-03T08:30:10.378Z,98988.97
2023-04-03T08:32:38.750Z,98985.16
2023-04-03T08:35:07.820Z,98982.78
2023-04-03T08:37:37.592Z,98987.97
2023-04-03T08:40:06.434Z,98986.66
2023-04-03T08:42:42.994Z,98984.75
2023-04-03T08:45:12.983Z,98985.13
2023-04-03T08:47:43.512Z,98987.50
2023-04-03T08:50:14.969Z,98983.16
2023-04-03T08:52:44.426Z,98979.88
2023-04-03T08:55:19.386Z,98994.59
2023-04-03T08:57:50.571Z,98980.34
2023-04-03T09:00:22.092Z,98990.28
2023-04-03T09:02:52.364Z,98984.28
2023-04-03T09:05:34.364Z,98992.91
2023-04-03T09:08:03.656Z,98986.59
2023-04-03T09:10:34.629Z,98992.56
2023-04-03T09:13:08.239Z,98992.06
2023-04-03T09:15:39.540Z,98996.22
2023-04-03T09:18:10.550Z,98997.56
2023-04-03T09:20:46.614Z,99001.81
2023-04-03T09:23:27.366Z,99000.47
2023-04-03T09:26:00.378Z,99003.72
2023-04-03T09:28:33.126Z,99015.56
2023-04-03T09:31:15.898Z,99008.31
2023-04-03T09:33:44.195Z,99005.38
2023-04-03T09:36:12.246Z,99013.16
2023-04-03T09:38:40.696Z,99006.63
2023-04-03T09:41:10.478Z,99001.25
2023-04-03T09:43:40.922Z,98999.59
2023-04-03T09:46:21.064Z,98998.22
2023-04-03T09:49:05.155Z,99014.38
2023-04-03T09:51:36.917Z,99003.31
2023-04-03T09:54:27.538Z,99006.09
2023-04-03T09:56:56.928Z,98998.28
2023-04-03T09:59:26.814Z,98996.66
2023-04-03T10:02:02.319Z,98994.94
2023-04-03T10:04:39.813Z,98991.53
2023-04-03T10:07:28.414Z,98996.75
2023-04-03T10:09:58.126Z,98989.84
2023-04-03T10:12:26.630Z,98992.75
2023-04-03T10:14:59.836Z,98990.38
2023-04-03T10:17:35.958Z,98991.13
2023-04-03T10:20:08.770Z,98991.66
2023-04-03T10:22:43.285Z,98989.06
2023-04-03T10:25:17.382Z,98980.81
2023-04-03T10:27:51.101Z,98982.63
2023-04-03T10:30:46.447Z,98989.81
2023-04-03T10:33:28.003Z,98982.09
2023-04-03T10:36:02.022Z,98983.03
2023-04-03T10:38:37.324Z,98978.09
2023-04-03T10:41:09.629Z,98979.81
2023-04-03T10:43:44.602Z,98967.44
2023-04-03T10:46:14.309Z,98966.81
2023-04-03T10:48:49.195Z,98970.97
2023-04-03T10:51:23.633Z,98965.19
2023-04-03T10:53:55.244Z,98968.50
2023-04-03T10:56:28.338Z,98961.53
2023-04-03T10:59:00.130Z,98964.13
2023-04-03T11:01:31.148Z,98966.88
2023-04-03T11:04:02.429Z,98949.13
2023-04-03T11:06:37.930Z,98938.41
2023-04-03T11:09:10.625Z,98934.84
2023-04-03T11:11:41.662Z,98938.19
2023-04-03T11:14:17.415Z,98935.53
2023-04-03T11:16:54.145Z,98939.75
2023-04-03T11:19:30.424Z,98938.03
2023-04-03T11:22:04.777Z,98931.28
2023-04-03T11:24:35.643Z,98923.03
2023-04-03T11:27:06.956Z,98916.34
2023-04-03T11:29:38.018Z,98918.94
2023-04-03T11:32:23.518Z,98922.16
2023-04-03T11:34:55.180Z,98925.47
2023-04-03T11:37:27.421Z,98923.72
2023-04-03T11:39:58.548Z,98916.94
2023-04-03T11:42:35.538Z,98923.88
2023-04-03T11:45:33.879Z,98914.19
2023-04-03T11:48:16.776Z,98919.09
2023-04-03T11:50:53.350Z,98918.97
2023-04-03T11:53:41.999Z,98915.69
2023-04-03T11:56:28.636Z,98903.38
2023-04-03T11:59:15.385Z,98868.63
2023-04-03T12:01:47.669Z,98892.66
2023-04-03T12:04:17.172Z,98888.41
2023-04-03T12:07:01.469Z,98893.50
2023-04-03T12:09:36.386Z,98892.47
2023-04-03T12:12:24.952Z,98895.66
2023-04-03T12:14:53.809Z,98889.53
2023-04-03T12:17:25.339Z,98885.34
2023-04-03T12:19:53.276Z,98886.34
2023-04-03T12:22:23.363Z,98884.81
2023-04-03T12:24:52.943Z,98869.41
2023-04-03T12:27:30.476Z,98878.06
2023-04-03T12:30:02.448Z,98878.84
2023-04-03T12:33:05.801Z,98871.91
2023-04-03T12:35:46.445Z,98871.94
2023-04-03T12:38:25.529Z,98871.03
2023-04-03T12:40:57.671Z,98859.09
2023-04-03T12:43:42.633Z,98855.00
2023-04-03T12:46:17.747Z,98864.41
2023-04-03T12:48:50.961Z,98859.31
2023-04-03T12:51:21.940Z,98854.00
2023-04-03T12:53:52.622Z,98851.47
2023-04-03T12:56:21.946Z,98854.97
2023-04-03T12:58:50.795Z,98849.81
2023-04-03T13:01:20.711Z,98860.88
2023-04-03T13:03:51.078Z,98852.19
2023-04-03T13:06:21.468Z,98852.28
2023-04-03T13:08:54.985Z,98837.91
2023-04-03T13:11:24.371Z,98843.97
2023-04-03T13:14:03.330Z,98844.78
2023-04-03T13:16:31.409Z,98852.38
2023-04-03T13:18:59.990Z,98847.97
2023-04-03T13:21:31.225Z,98851.38
2023-04-03T13:24:13.915Z,98854.81
2023-04-03T13:26:44.610Z,98842.88
2023-04-03T13:29:29.987Z,98832.72
2023-04-03T13:32:00.208Z,98841.31
2023-04-03T13:34:29.966Z,98820.09
2023-04-03T13:36:59.556Z,98827.78
2023-04-03T13:39:31.246Z,98825.22
2023-04-03T13:42:00.614Z,98815.81
2023-04-03T13:44:33.841Z,98826.03
2023-04-03T13:47:03.739Z,98826.06
2023-04-03T13:49:34.015Z,98819.19
2023-04-03T13:52:07.818Z,98824.34
2023-04-03T13:54:39.477Z,98827.72
2023-04-03T13:57:14.452Z,98817.47
2023-04-03T13:59:42.799Z,98820.09
2023-04-03T14:02:19.920Z,98824.38
2023-04-03T14:04:50.561Z,98822.66
2023-04-03T14:07:21.298Z,98829.47
2023-04-03T14:09:54.290Z,98835.44
2023-04-03T14:12:31.458Z,98817.56
2023-04-03T14:15:02.988Z,98823.59
2023-04-03T14:17:34.798Z,98821.00
2023-04-03T14:20:03.094Z,98825.25
2023-04-03T14:22:33.282Z,98814.16
2023-04-03T14:25:03.493Z,98831.19
2023-04-03T14:27:33.109Z,98826.06
2023-04-03T14:30:02.122Z,98826.88
2023-04-03T14:32:30.146Z,98817.56
2023-04-03T14:35:00.037Z,98812.50
2023-04-03T14:37:30.588Z,98824.41
2023-04-03T14:40:00.139Z,98814.09
2023-04-03T14:42:31.238Z,98821.00
2023-04-03T14:45:00.124Z,98809.94
2023-04-03T14:47:32.263Z,98808.22
2023-04-03T14:50:01.662Z,98805.66
2023-04-03T14:52:31.680Z,98817.63
2023-04-03T14:54:59.568Z,98812.50
2023-04-03T14:57:28.840Z,98807.41
2023-04-03T14:59:58.307Z,98817.59
2023-04-03T15:02:31.324Z,98810.78
2023-04-03T15:05:00.061Z,98815.88
2023-04-03T15:07:29.817Z,98802.22
2023-04-03T15:10:00.208Z,98802.22
2023-04-03T15:12:29.427Z,98803.88
2023-04-03T15:15:02.779Z,98800.53
2023-04-03T15:17:32.086Z,98802.16
2023-04-03T15:20:00.722Z,98813.22
2023-04-03T15:22:29.007Z,98805.59
2023-04-03T15:24:56.771Z,98809.75
2023-04-03T15:27:24.573Z,98809.72
2023-04-03T15:29:52.596Z,98816.59
2023-04-03T15:32:21.888Z,98819.19
2023-04-03T15:34:50.105Z,98817.56
2023-04-03T15:37:18.585Z,98817.53
2023-04-03T15:39:46.792Z,98822.63
2023-04-03T15:42:14.815Z,98814.97
2023-04-03T15:44:43.097Z,98821.75
2023-04-03T15:47:11.517Z,98817.34
2023-04-03T15:49:41.596Z,98825.84
2023-04-03T15:52:09.870Z,98831.75
2023-04-03T15:54:37.806Z,98828.28
2023-04-03T15:57:05.874Z,98837.59
2023-04-03T15:59:33.939Z,98831.63
2023-04-03T16:02:02.819Z,98829.13
2023-04-03T16:04:31.064Z,98821.50
2023-04-03T16:07:03.204Z,98823.25
2023-04-03T16:09:31.249Z,98819.06
2023-04-03T16:11:59.144Z,98835.16
2023-04-03T16:14:29.342Z,98825.78
2023-04-03T16:16:57.638Z,98826.66
2023-04-03T16:19:26.426Z,98833.34
2023-04-03T16:21:55.839Z,98828.25
2023-04-03T16:24:25.915Z,98829.16
2023-04-03T16:26:54.631Z,98830.84
2023-04-03T16:29:23.035Z,98835.06
2023-04-03T16:31:51.439Z,98836.81
2023-04-03T16:34:19.376Z,98840.19
2023-04-03T16:36:47.706Z,98843.56
2023-04-03T16:39:16.415Z,98846.97
2023-04-03T16:41:46.404Z,98837.84
2023-04-03T16:44:15.127Z,98844.03
2023-04-03T16:46:43.180Z,98843.19
2023-04-03T16:49:11.580Z,98843.03
2023-04-03T16:51:39.906Z,98847.44
2023-04-03T16:54:08.367Z,98846.59
2023-04-03T16:56:36.396Z,98841.50
2023-04-03T16:59:06.436Z,98856.72
2023-04-03T17:01:34.347Z,98851.63
2023-04-03T17:04:02.656Z,98864.31
2023-04-03T17:06:31.804Z,98858.91
2023-04-03T17:08:59.969Z,98874.84
2023-04-03T17:11:28.105Z,98874.63
2023-04-03T17:13:56.144Z,98871.78
2023-04-03T17:16:26.755Z,98880.22
2023-04-03T17:18:55.418Z,98884.41
2023-04-03T17:21:23.770Z,98879.19
2023-04-03T17:23:53.725Z,98877.31
2023-04-03T17:26:22.177Z,98885.84
2023-04-03T17:28:50.646Z,98878.13
2023-04-03T17:31:18.627Z,98888.19
2023-04-03T17:33:48.617Z,98891.50
2023-04-03T17:36:16.652Z,98893.16
2023-04-03T17:38:44.591Z,98893.06
2023-04-03T17:41:12.881Z,98896.47
2023-04-03T17:43:41.145Z,98902.31
2023-04-03T17:46:10.121Z,98894.59
2023-04-03T17:48:39.389Z,98903.88
2023-04-03T17:51:10.246Z,98903.78
2023-04-03T17:53:38.043Z,98905.47
2023-04-03T17:56:09.022Z,98908.03
2023-04-03T17:58:37.651Z,98903.72
2023-04-03T18:01:13.104Z,98904.44
2023-04-03T18:03:42.131Z,98912.91
2023-04-03T18:06:12.855Z,98921.25
2023-04-03T18:08:43.277Z,98925.38
2023-04-03T18:11:11.748Z,98922.69
2023-04-03T18:13:40.017Z,98935.31
2023-04-03T18:16:08.624Z,98927.56
2023-04-03T18:18:37.263Z,98931.75
2023-04-03T18:21:06.090Z,98941.00
2023-04-03T18:23:37.020Z,98934.13
2023-04-03T18:26:06.086Z,98939.16
2023-04-03T18:28:34.057Z,98945.81
2023-04-03T18:31:02.246Z,98939.88
2023-04-03T18:33:30.249Z,98941.53
2023-04-03T18:35:58.187Z,98935.41
2023-04-03T18:38:26.345Z,98941.31
2023-04-03T18:40:56.906Z,98944.66
2023-04-03T18:43:27.227Z,98939.47
2023-04-03T18:45:55.259Z,98947.06
2023-04-03T18:48:23.150Z,98947.81
2023-04-03T18:50:51.644Z,98951.13
2023-04-03T18:53:20.448Z,98952.75
2023-04-03T18:55:48.839Z,98956.97
2023-04-03T18:58:18.404Z,98949.19
2023-04-03T19:00:46.962Z,98955.09
2023-04-03T19:03:15.133Z,98955.09
2023-04-03T19:05:43.530Z,98965.81
2023-04-03T19:08:12.177Z,98960.63
2023-04-03T19:10:40.489Z,98964.78
2023-04-03T19:13:08.720Z,98970.63
2023-04-03T19:15:38.856Z,98965.44
2023-04-03T19:18:06.949Z,98973.09
2023-04-03T19:20:34.972Z,98969.59
2023-04-03T19:23:03.177Z,98966.97
2023-04-03T19:25:31.433Z,98977.91
2023-04-03T19:27:59.876Z,98978.53
2023-04-03T19:30:27.810Z,98982.69
2023-04-03T19:32:58.406Z,98986.91
2023-04-03T19:35:26.569Z,98989.28
2023-04-03T19:37:54.514Z,98990.13
2023-04-03T19:40:22.761Z,98987.53
2023-04-03T19:42:50.966Z,98979.84
2023-04-03T19:45:20.471Z,98987.59
2023-04-03T19:47:49.598Z,98983.91
2023-04-03T19:50:19.464Z,98988.06
2023-04-03T19:52:48.820Z,98994.72
2023-04-03T19:55:17.086Z,98993.78
2023-04-03T19:57:44.971Z,98988.59
2023-04-03T20:00:14.001Z,98983.44
2023-04-03T20:02:41.890Z,98985.75
2023-04-03T20:05:11.805Z,98989.06
2023-04-03T20:07:41.146Z,98994.84
2023-04-03T20:10:10.483Z,98997.41
2023-04-03T20:12:39.580Z,98991.41
2023-04-03T20:15:09.171Z,99000.53
2023-04-03T20:17:37.529Z,99003.97
2023-04-03T20:20:06.227Z,99003.06
2023-04-03T20:22:35.062Z,99003.66
2023-04-03T20:25:06.724Z,99000.44
2023-04-03T20:27:35.150Z,98999.53
2023-04-03T20:30:04.029Z,98995.88
2023-04-03T20:32:32.756Z,99000.03
2023-04-03T20:35:03.974Z,98999.97
2023-04-03T20:37:32.635Z,98993.09
2023-04-03T20:40:01.028Z,98998.81
2023-04-03T20:42:30.285Z,98998.72
2023-04-03T20:44:59.915Z,99003.72
2023-04-03T20:47:28.082Z,99001.97
2023-04-03T20:49:58.725Z,99001.97
2023-04-03T20:52:27.098Z,99001.13
2023-04-03T20:54:55.010Z,98998.50
2023-04-03T20:57:23.057Z,98998.50
2023-04-03T20:59:54.332Z,98996.59
2023-04-03T21:02:22.262Z,98998.22
2023-04-03T21:04:52.220Z,98997.28
2023-04-03T21:07:40.174Z,98995.41
2023-04-03T21:10:28.456Z,98991.84
2023-04-03T21:13:14.848Z,98997.63
2023-04-03T21:15:48.994Z,98997.44
2023-04-03T21:18:33.534Z,98992.97
2023-04-03T21:21:02.830Z,98996.13
2023-04-03T21:23:31.207Z,98996.16
2023-04-03T21:25:59.344Z,98995.78
2023-04-03T21:28:27.606Z,98995.72
2023-04-03T21:30:55.482Z,99004.19
2023-04-03T21:33:23.350Z,99002.31
2023-04-03T21:35:57.858Z,99003.16
2023-04-03T21:38:27.420Z,99008.13
2023-04-03T21:40:57.829Z,99003.78
2023-04-03T21:43:26.268Z,99006.31
2023-04-03T21:45:54.433Z,99003.75
2023-04-03T21:48:22.412Z,98995.13
2023-04-03T21:50:52.631Z,99001.75
2023-04-03T21:53:22.648Z,98999.81
2023-04-03T21:55:57.534Z,98994.78
2023-04-03T21:58:29.501Z,98991.38
2023-04-03T22:00:57.672Z,98999.72
2023-04-03T22:03:25.759Z,98996.31
2023-04-03T22:05:53.827Z,99002.22
2023-04-03T22:08:23.046Z,98994.50
2023-04-03T22:10:51.505Z,98993.63
2023-04-03T22:13:19.482Z,99001.94
2023-04-03T22:15:48.396Z,99003.19
2023-04-03T22:18:16.431Z,99001.16
2023-04-03T22:20:44.846Z,99002.25
2023-04-03T22:23:13.012Z,99000.78
2023-04-03T22:25:42.903Z,98999.91
2023-04-03T22:28:12.373Z,99002.25
2023-04-03T22:30:42.175Z,99003.72
2023-04-03T22:33:10.348Z,98999.50
2023-04-03T22:35:38.610Z,98996.88
2023-04-03T22:38:06.959Z,98997.91
2023-04-03T22:40:35.022Z,98999.16
2023-04-03T22:43:04.789Z,98999.88
2023-04-03T22:45:32.959Z,98993.06
2023-04-03T22:48:01.588Z,98987.94
2023-04-03T22:50:29.814Z,98989.50
2023-04-03T22:52:57.779Z,98994.84
2023-04-03T22:55:26.854Z,98984.75
2023-04-03T22:57:55.138Z,98988.31
2023-04-03T23:00:24.895Z,98995.41
2023-04-03T23:02:53.145Z,98995.16
2023-04-03T23:05:21.526Z,98994.91
2023-04-03T23:07:49.484Z,98983.50
2023-04-03T23:10:17.994Z,98980.59
2023-04-03T23:12:46.090Z,98980.94
2023-04-03T23:15:15.439Z,98977.00
2023-04-03T23:17:44.887Z,98980.84
2023-04-03T23:20:13.072Z,98977.34
2023-04-03T23:22:41.359Z,98983.47
2023-04-03T23:25:09.822Z,98979.34
2023-04-03T23:27:38.105Z,98984.81
2023-04-03T23:30:06.668Z,98978.97
2023-04-03T23:32:34.521Z,98986.53
2023-04-03T23:35:05.665Z,98979.84
2023-04-03T23:37:33.602Z,98981.59
2023-04-03T23:40:02.422Z,98983.31
2023-04-03T23:42:30.244Z,98979.13
2023-04-03T23:44:58.463Z,98982.38
2023-04-03T23:47:26.633Z,98972.09
2023-04-03T23:49:54.448Z,98981.44
2023-04-03T23:52:24.192Z,98977.91
2023-04-03T23:54:52.376Z,98973.69
2023-04-03T23:57:20.444Z,98976.38
2023-04-03T23:59:48.388Z,98977.31
